createdAt,value
2022-10-20T00:03:19.418Z,13.09
2022-10-20T00:07:23.984Z,13.03
2022-10-20T00:11:28.546Z,12.96
2022-10-20T00:15:32.067Z,12.84
2022-10-20T00:19:36.918Z,12.81
2022-10-20T00:23:40.398Z,12.76
2022-10-20T00:27:43.960Z,12.70
2022-10-20T00:31:47.629Z,12.63
2022-10-20T00:35:52.080Z,12.56
2022-10-20T00:39:55.438Z,12.44
2022-10-20T00:44:00.947Z,12.42
2022-10-20T00:48:10.188Z,12.37
2022-10-20T00:52:15.735Z,12.31
2022-10-20T00:56:19.265Z,12.26
2022-10-20T01:00:23.622Z,12.21
2022-10-20T01:04:30.674Z,12.16
2022-10-20T01:08:35.949Z,12.12
2022-10-20T01:12:46.697Z,12.07
2022-10-20T01:16:59.659Z,12.03
2022-10-20T01:21:12.351Z,12.01
2022-10-20T01:25:35.925Z,11.94
2022-10-20T01:29:45.977Z,11.80
2022-10-20T01:33:56.785Z,11.77
2022-10-20T01:38:07.841Z,11.70
2022-10-20T01:42:15.691Z,11.62
2022-10-20T01:46:26.033Z,11.55
2022-10-20T01:50:30.729Z,11.44
2022-10-20T01:54:34.135Z,11.43
2022-10-20T01:59:15.970Z,11.37
2022-10-20T02:03:34.041Z,11.30
2022-10-20T02:07:37.944Z,11.22
2022-10-20T02:11:47.181Z,11.19
2022-10-20T02:15:54.937Z,11.14
2022-10-20T02:20:00.082Z,11.10
2022-10-20T02:24:06.944Z,11.08
2022-10-20T02:28:13.353Z,11.05
2022-10-20T02:32:19.083Z,11.02
2022-10-20T02:36:28.609Z,11.01
2022-10-20T02:40:31.734Z,10.98
2022-10-20T02:44:35.321Z,10.95
2022-10-20T02:48:39.179Z,10.91
2022-10-20T02:52:43.681Z,10.88
2022-10-20T02:56:47.123Z,10.87
2022-10-20T03:00:51.515Z,10.85
2022-10-20T03:04:54.537Z,10.81
2022-10-20T03:08:59.505Z,10.79
2022-10-20T03:13:02.826Z,10.74
2022-10-20T03:17:05.890Z,10.69
2022-10-20T03:21:09.276Z,10.66
2022-10-20T03:25:14.126Z,10.62
2022-10-20T03:29:17.131Z,10.60
2022-10-20T03:33:20.581Z,10.58
2022-10-20T03:37:24.157Z,10.56
2022-10-20T03:41:29.182Z,10.57
2022-10-20T03:45:32.752Z,10.54
2022-10-20T03:49:35.737Z,10.52
2022-10-20T03:53:39.381Z,10.53
2022-10-20T03:57:44.288Z,10.54
2022-10-20T04:01:48.108Z,10.53
2022-10-20T04:05:51.774Z,10.55
2022-10-20T04:09:56.695Z,10.52
2022-10-20T04:14:02.158Z,10.51
2022-10-20T04:18:05.683Z,10.50
2022-10-20T04:22:08.955Z,10.48
2022-10-20T04:26:13.618Z,10.47
2022-10-20T04:30:18.292Z,10.43
2022-10-20T04:34:21.985Z,10.41
2022-10-20T04:38:25.553Z,10.39
2022-10-20T04:42:28.546Z,10.38
2022-10-20T04:46:33.737Z,10.35
2022-10-20T04:50:37.248Z,10.34
2022-10-20T04:54:40.763Z,10.35
2022-10-20T04:58:43.747Z,10.30
2022-10-20T05:02:48.927Z,10.36
2022-10-20T05:06:52.394Z,10.37
2022-10-20T05:10:55.905Z,10.38
2022-10-20T05:14:59.536Z,10.35
2022-10-20T05:19:04.251Z,10.33
2022-10-20T05:23:07.794Z,10.33
2022-10-20T05:27:11.286Z,10.34
2022-10-20T05:31:17.776Z,10.35
2022-10-20T05:35:22.727Z,10.35
2022-10-20T05:39:25.758Z,10.34
2022-10-20T05:43:29.424Z,10.36
2022-10-20T05:47:33.240Z,10.34
2022-10-20T05:51:38.184Z,10.35
2022-10-20T05:55:41.616Z,10.38
2022-10-20T05:59:44.645Z,10.48
2022-10-20T06:03:52.085Z,10.64
2022-10-20T06:07:57.227Z,10.84
2022-10-20T06:12:00.825Z,11.04
2022-10-20T06:16:05.791Z,11.22
2022-10-20T06:20:09.454Z,11.42
2022-10-20T06:24:14.743Z,11.53
2022-10-20T06:28:18.515Z,11.62
2022-10-20T06:32:22.393Z,11.77
2022-10-20T06:36:27.282Z,11.95
2022-10-20T06:40:31.759Z,12.19
2022-10-20T06:44:35.174Z,12.51
2022-10-20T06:48:38.739Z,12.79
2022-10-20T06:52:42.539Z,13.09
2022-10-20T06:56:47.413Z,13.32
2022-10-20T07:00:59.643Z,13.51
2022-10-20T07:05:03.098Z,13.65
2022-10-20T07:09:08.885Z,13.79
2022-10-20T07:13:13.859Z,13.80
2022-10-20T07:17:17.394Z,13.80
2022-10-20T07:21:22.009Z,13.85
2022-10-20T07:25:25.505Z,13.91
2022-10-20T07:29:30.137Z,14.04
2022-10-20T07:33:33.681Z,14.16
2022-10-20T07:37:36.938Z,14.27
2022-10-20T07:41:40.765Z,14.31
2022-10-20T07:45:45.884Z,14.33
2022-10-20T07:49:49.312Z,14.33
2022-10-20T07:53:56.820Z,14.38
2022-10-20T07:58:03.190Z,14.53
2022-10-20T08:02:07.598Z,14.66
2022-10-20T08:06:11.504Z,14.80
2022-10-20T08:10:15.313Z,14.77
2022-10-20T08:14:18.763Z,15.12
2022-10-20T08:18:23.898Z,15.28
2022-10-20T08:22:27.347Z,15.55
2022-10-20T08:26:31.210Z,15.69
2022-10-20T08:30:34.831Z,15.80
2022-10-20T08:34:40.063Z,15.92
2022-10-20T08:38:43.932Z,15.98
2022-10-20T08:42:48.613Z,16.03
2022-10-20T08:46:52.078Z,16.16
2022-10-20T08:50:57.921Z,16.27
2022-10-20T08:55:01.925Z,16.39
2022-10-20T08:59:26.114Z,16.44
2022-10-20T09:03:32.834Z,16.45
2022-10-20T09:07:40.153Z,16.42
2022-10-20T09:11:45.219Z,16.39
2022-10-20T09:15:50.226Z,16.42
2022-10-20T09:19:58.646Z,16.58
2022-10-20T09:24:05.955Z,16.77
2022-10-20T09:28:21.957Z,17.08
2022-10-20T09:32:50.895Z,17.26
2022-10-20T09:36:57.698Z,17.50
2022-10-20T09:41:11.728Z,17.63
2022-10-20T09:45:22.120Z,17.73
2022-10-20T09:49:29.937Z,17.89
2022-10-20T09:53:37.618Z,18.05
2022-10-20T09:57:48.485Z,18.20
2022-10-20T10:01:57.467Z,18.40
2022-10-20T10:06:01.403Z,18.57
2022-10-20T10:10:08.619Z,18.76
2022-10-20T10:14:23.991Z,19.02
2022-10-20T10:18:27.596Z,19.29
2022-10-20T10:22:30.650Z,19.56
2022-10-20T10:26:40.314Z,19.74
2022-10-20T10:30:46.984Z,19.88
2022-10-20T10:35:20.756Z,20.00
2022-10-20T10:39:24.327Z,20.12
2022-10-20T10:43:39.360Z,20.27
2022-10-20T10:48:19.427Z,20.42
2022-10-20T10:52:35.780Z,20.60
2022-10-20T10:56:45.874Z,20.69
2022-10-20T11:00:59.699Z,20.80
2022-10-20T11:05:28.702Z,20.95
2022-10-20T11:09:42.152Z,21.10
2022-10-20T11:13:56.259Z,21.28
2022-10-20T11:18:07.985Z,21.38
2022-10-20T11:22:26.042Z,21.42
2022-10-20T11:26:35.132Z,21.42
2022-10-20T11:30:38.209Z,21.42
2022-10-20T11:34:51.775Z,21.43
2022-10-20T11:38:57.643Z,21.47
2022-10-20T11:43:10.338Z,21.52
2022-10-20T11:47:17.812Z,21.52
2022-10-20T11:51:42.116Z,21.51
2022-10-20T11:56:07.796Z,21.48
2022-10-20T12:00:28.987Z,21.43
2022-10-20T12:04:55.733Z,21.37
2022-10-20T12:09:11.790Z,21.32
2022-10-20T12:13:38.132Z,21.23
2022-10-20T12:17:44.645Z,21.10
2022-10-20T12:21:57.905Z,20.99
2022-10-20T12:26:01.386Z,20.98
2022-10-20T12:30:56.424Z,20.97
2022-10-20T12:35:01.347Z,20.91
2022-10-20T12:39:30.411Z,20.80
2022-10-20T12:43:49.132Z,20.68
2022-10-20T12:47:59.146Z,20.65
2022-10-20T12:52:04.020Z,20.60
2022-10-20T13:01:00.508Z,20.60
2022-10-20T13:05:28.893Z,20.55
2022-10-20T13:09:32.426Z,20.52
2022-10-20T13:13:45.502Z,20.44
2022-10-20T13:17:57.988Z,20.29
2022-10-20T13:22:30.978Z,20.15
2022-10-20T13:26:40.296Z,19.98
2022-10-20T13:31:13.154Z,19.78
2022-10-20T13:35:24.188Z,19.58
2022-10-20T13:39:38.303Z,19.47
2022-10-20T13:43:51.863Z,19.44
2022-10-20T13:48:07.026Z,19.49
2022-10-20T13:52:16.513Z,19.62
2022-10-20T13:56:34.235Z,19.77
2022-10-20T14:00:38.785Z,19.95
2022-10-20T14:04:45.116Z,20.01
2022-10-20T14:08:48.895Z,20.08
2022-10-20T14:12:55.463Z,20.14
2022-10-20T14:17:01.747Z,20.13
2022-10-20T14:21:08.963Z,20.15
2022-10-20T14:25:13.277Z,20.13
2022-10-20T14:29:19.766Z,20.11
2022-10-20T14:33:23.484Z,19.98
2022-10-20T14:37:33.720Z,19.90
2022-10-20T14:41:37.643Z,19.74
2022-10-20T14:45:42.596Z,19.60
2022-10-20T14:49:52.346Z,19.44
2022-10-20T14:54:24.593Z,19.26
2022-10-20T14:58:37.175Z,19.07
2022-10-20T15:02:43.884Z,18.83
2022-10-20T15:06:47.039Z,18.56
2022-10-20T15:10:50.599Z,18.31
2022-10-20T15:14:56.198Z,18.11
2022-10-20T15:19:20.392Z,17.89
2022-10-20T15:23:25.077Z,17.70
2022-10-20T15:27:28.233Z,17.54
2022-10-20T15:31:32.213Z,17.40
2022-10-20T15:35:36.624Z,17.27
2022-10-20T15:39:40.235Z,17.12
2022-10-20T15:48:08.459Z,16.77
2022-10-20T15:52:14.012Z,16.60
2022-10-20T15:56:17.465Z,16.43
2022-10-20T16:00:22.608Z,16.30
2022-10-20T16:04:26.646Z,16.16
2022-10-20T16:08:32.072Z,16.03
2022-10-20T16:12:36.313Z,15.90
2022-10-20T16:16:40.010Z,15.79
2022-10-20T16:20:43.439Z,15.68
2022-10-20T16:24:47.848Z,15.62
2022-10-20T16:28:51.941Z,15.54
2022-10-20T16:32:55.293Z,15.49
2022-10-20T16:36:59.014Z,15.43
2022-10-20T16:41:05.955Z,15.36
2022-10-20T16:45:10.054Z,15.33
2022-10-20T16:49:13.938Z,15.31
2022-10-20T16:53:18.363Z,15.28
2022-10-20T16:57:23.280Z,15.25
2022-10-20T17:01:27.353Z,15.22
2022-10-20T17:05:30.412Z,15.16
2022-10-20T17:09:34.243Z,15.12
2022-10-20T17:13:40.041Z,15.07
2022-10-20T17:17:43.959Z,15.00
2022-10-20T17:21:46.887Z,14.95
2022-10-20T17:25:50.086Z,14.87
2022-10-20T17:29:54.849Z,14.80
2022-10-20T17:33:58.989Z,14.73
2022-10-20T17:38:04.460Z,14.66
2022-10-20T17:42:07.877Z,14.62
2022-10-20T17:46:16.377Z,14.56
2022-10-20T17:50:19.541Z,14.54
2022-10-20T17:54:24.272Z,14.50
2022-10-20T17:58:28.848Z,14.44
2022-10-20T18:02:33.361Z,14.41
2022-10-20T18:06:38.323Z,14.38
2022-10-20T18:10:44.861Z,14.34
2022-10-20T18:14:48.978Z,14.32
2022-10-20T18:18:54.199Z,14.35
2022-10-20T18:22:57.565Z,14.32
2022-10-20T18:27:01.304Z,14.29
2022-10-20T18:31:11.378Z,14.31
2022-10-20T18:35:16.996Z,14.29
2022-10-20T18:39:20.862Z,14.26
2022-10-20T18:43:24.158Z,14.21
2022-10-20T18:47:27.648Z,14.16
2022-10-20T18:51:33.180Z,14.16
2022-10-20T18:55:37.181Z,14.15
2022-10-20T19:09:31.210Z,14.10
2022-10-20T19:13:35.219Z,14.07
2022-10-20T19:17:38.866Z,14.03
2022-10-20T19:21:42.912Z,14.00
2022-10-20T19:25:51.470Z,13.96
2022-10-20T19:29:56.215Z,13.83
2022-10-20T19:34:02.846Z,13.78
2022-10-20T19:38:06.543Z,13.82
2022-10-20T19:42:13.073Z,13.79
2022-10-20T19:46:19.768Z,13.74
2022-10-20T19:50:23.365Z,13.68
2022-10-20T19:54:27.363Z,13.61
2022-10-20T19:58:32.363Z,13.57
2022-10-20T20:02:38.270Z,13.50
2022-10-20T20:06:41.701Z,13.43
2022-10-20T20:10:53.588Z,13.37
2022-10-20T20:14:59.159Z,13.30
2022-10-20T20:19:03.247Z,13.23
2022-10-20T20:23:07.190Z,13.16
2022-10-20T20:27:13.854Z,13.09
2022-10-20T20:31:19.539Z,13.04
2022-10-20T20:35:23.269Z,13.00
2022-10-20T20:39:27.182Z,12.96
2022-10-20T20:43:31.373Z,12.92
2022-10-20T20:47:37.393Z,12.87
2022-10-20T20:51:41.118Z,12.84
2022-10-20T20:55:55.330Z,12.80
2022-10-20T21:00:05.087Z,12.71
2022-10-20T21:04:14.086Z,12.70
2022-10-20T21:08:17.124Z,12.66
2022-10-20T21:12:20.680Z,12.64
2022-10-20T21:16:26.730Z,12.58
2022-10-20T21:20:31.107Z,12.59
2022-10-20T21:24:34.639Z,12.57
2022-10-20T21:28:38.456Z,12.57
2022-10-20T21:32:41.453Z,12.55
2022-10-20T21:36:46.498Z,12.53
2022-10-20T21:40:50.043Z,12.54
2022-10-20T21:44:53.000Z,12.55
2022-10-20T21:48:59.818Z,12.57
2022-10-20T21:53:04.725Z,12.58
2022-10-20T21:57:08.190Z,12.56
2022-10-20T22:01:12.960Z,12.54
2022-10-20T22:05:16.481Z,12.51
2022-10-20T22:09:22.617Z,12.48
2022-10-20T22:13:25.758Z,12.44
2022-10-20T22:17:29.304Z,12.41
2022-10-20T22:21:33.800Z,12.38
2022-10-20T22:25:39.145Z,12.35
2022-10-20T22:29:42.452Z,12.30
2022-10-20T22:33:45.969Z,12.24
2022-10-20T22:37:48.961Z,12.20
2022-10-20T22:41:53.701Z,12.18
2022-10-20T22:45:57.229Z,12.11
2022-10-20T22:50:00.209Z,12.06
2022-10-20T22:54:03.620Z,12.02
2022-10-20T22:58:08.077Z,11.98
2022-10-20T23:02:11.582Z,11.93
2022-10-20T23:06:17.317Z,11.88
2022-10-20T23:10:20.353Z,11.80
2022-10-20T23:14:25.052Z,11.83
2022-10-20T23:18:28.759Z,11.82
2022-10-20T23:22:31.968Z,11.83
2022-10-20T23:26:35.574Z,11.85
2022-10-20T23:30:40.413Z,11.89
2022-10-20T23:34:43.413Z,11.91
2022-10-20T23:38:47.754Z,11.91
2022-10-20T23:42:51.146Z,11.92
2022-10-20T23:46:55.921Z,11.92
2022-10-20T23:50:59.700Z,11.91
2022-10-20T23:55:02.919Z,11.88
2022-10-20T23:59:06.102Z,11.87
